createdAt,value
2016-03-13T00:00:52.199Z,959.27
2016-03-13T00:01:52.139Z,959.27
2016-03-13T00:02:52.080Z,959.26
2016-03-13T00:03:52.019Z,959.26
2016-03-13T00:04:51.960Z,959.27
2016-03-13T00:05:51.915Z,959.28
2016-03-13T00:06:51.840Z,959.29
2016-03-13T00:07:51.796Z,959.25
2016-03-13T00:08:51.751Z,959.29
2016-03-13T00:09:51.677Z,959.26
2016-03-13T00:10:51.616Z,959.24
2016-03-13T00:11:51.557Z,959.26
2016-03-13T00:12:51.529Z,959.28
2016-03-13T00:13:51.469Z,959.26
2016-03-13T00:14:51.377Z,959.26
2016-03-13T00:15:51.333Z,959.24
2016-03-13T00:16:51.273Z,959.26
2016-03-13T00:17:51.229Z,959.24
2016-03-13T00:18:51.154Z,959.27
2016-03-13T00:19:51.095Z,959.22
2016-03-13T00:20:51.050Z,959.21
2016-03-13T00:21:50.990Z,959.21
2016-03-13T00:22:50.914Z,959.23
2016-03-13T00:23:50.870Z,959.26
2016-03-13T00:24:50.811Z,959.22
2016-03-13T00:25:50.750Z,959.22
2016-03-13T00:26:50.691Z,959.25
2016-03-13T00:27:50.631Z,959.23
2016-03-13T00:28:50.571Z,959.25
2016-03-13T00:29:50.511Z,959.25
2016-03-13T00:30:50.452Z,959.26
2016-03-13T00:31:50.408Z,959.27
2016-03-13T00:32:50.348Z,959.28
2016-03-13T00:33:50.303Z,959.28
2016-03-13T00:34:50.228Z,959.25
2016-03-13T00:35:50.168Z,959.26
2016-03-13T00:36:50.108Z,959.3
2016-03-13T00:37:50.048Z,959.3
2016-03-13T00:38:49.994Z,959.3
2016-03-13T00:39:49.949Z,959.25
2016-03-13T00:40:49.890Z,959.26
2016-03-13T00:41:49.830Z,959.26
2016-03-13T00:42:49.785Z,959.24
2016-03-13T00:43:49.726Z,959.24
2016-03-13T00:44:49.651Z,959.23
2016-03-13T00:45:49.590Z,959.26
2016-03-13T00:46:49.531Z,959.26
2016-03-13T00:47:49.470Z,959.3
2016-03-13T00:48:49.427Z,959.26
2016-03-13T00:49:49.351Z,959.25
2016-03-13T00:50:49.307Z,959.3
2016-03-13T00:51:49.232Z,959.28
2016-03-13T00:52:49.187Z,959.21
2016-03-13T00:53:49.128Z,959.22
2016-03-13T00:54:49.067Z,959.23
2016-03-13T00:55:49.008Z,959.22
2016-03-13T00:56:48.948Z,959.27
2016-03-13T00:57:48.904Z,959.22
2016-03-13T00:58:48.828Z,959.17
2016-03-13T00:59:48.785Z,959.14
2016-03-13T01:00:48.725Z,959.14
2016-03-13T01:01:48.666Z,959.14
2016-03-13T01:02:48.605Z,959.14
2016-03-13T01:03:48.546Z,959.14
2016-03-13T01:04:48.485Z,959.16
2016-03-13T01:05:48.441Z,959.18
2016-03-13T01:06:48.381Z,959.13
2016-03-13T01:07:48.307Z,959.17
2016-03-13T01:08:48.262Z,959.17
2016-03-13T01:09:48.218Z,959.08
2016-03-13T01:10:48.143Z,959.17
2016-03-13T01:11:48.083Z,959.07
2016-03-13T01:12:48.023Z,959.07
2016-03-13T01:13:47.962Z,959.1
2016-03-13T01:14:47.903Z,959.09
2016-03-13T01:15:47.843Z,959.07
2016-03-13T01:16:47.798Z,959.09
2016-03-13T01:17:47.739Z,959.08
2016-03-13T01:18:47.696Z,959.09
2016-03-13T01:19:47.604Z,959.12
2016-03-13T01:20:47.560Z,959.09
2016-03-13T01:21:47.500Z,959.09
2016-03-13T01:22:47.440Z,959.02
2016-03-13T01:23:47.380Z,959.05
2016-03-13T01:24:47.320Z,959.06
2016-03-13T01:25:47.260Z,959.03
2016-03-13T01:26:47.201Z,959.09
2016-03-13T01:27:47.141Z,959
2016-03-13T01:28:47.081Z,959.03
2016-03-13T01:29:47.037Z,959.01
2016-03-13T01:30:46.961Z,959
2016-03-13T01:31:46.917Z,958.99
2016-03-13T01:32:46.858Z,959
2016-03-13T01:33:46.797Z,959.01
2016-03-13T01:34:46.738Z,958.99
2016-03-13T01:35:46.677Z,958.99
2016-03-13T01:36:46.618Z,958.95
2016-03-13T01:37:46.559Z,958.96
2016-03-13T01:38:46.499Z,958.97
2016-03-13T01:39:46.455Z,958.95
2016-03-13T01:40:46.395Z,958.89
2016-03-13T01:41:46.335Z,958.95
2016-03-13T01:42:46.275Z,958.97
2016-03-13T01:43:46.199Z,958.98
2016-03-13T01:44:46.156Z,958.96
2016-03-13T01:45:46.096Z,958.98
2016-03-13T01:46:46.037Z,958.95
2016-03-13T01:47:45.976Z,958.94
2016-03-13T01:48:45.917Z,958.98
2016-03-13T01:49:45.857Z,958.97
2016-03-13T01:50:45.797Z,958.96
2016-03-13T01:51:45.753Z,958.92
2016-03-13T01:52:45.677Z,958.94
2016-03-13T01:53:45.617Z,958.93
2016-03-13T01:54:45.558Z,958.95
2016-03-13T01:55:45.497Z,958.97
2016-03-13T01:56:45.470Z,958.93
2016-03-13T01:57:45.378Z,958.94
2016-03-13T01:58:45.334Z,958.92
2016-03-13T01:59:45.274Z,958.9
2016-03-13T02:00:45.214Z,958.86
2016-03-13T02:01:45.155Z,958.92
2016-03-13T02:02:45.094Z,958.87
2016-03-13T02:03:45.035Z,958.85
2016-03-13T02:04:44.975Z,958.86
2016-03-13T02:05:44.931Z,958.89
2016-03-13T02:06:44.855Z,958.86
2016-03-13T02:07:44.796Z,958.88
2016-03-13T02:08:44.736Z,958.86
2016-03-13T02:09:44.707Z,958.86
2016-03-13T02:10:44.616Z,958.84
2016-03-13T02:11:44.557Z,958.8
2016-03-13T02:12:44.512Z,958.87
2016-03-13T02:13:44.452Z,958.84
2016-03-13T02:14:44.376Z,958.89
2016-03-13T02:15:44.349Z,958.85
2016-03-13T02:16:44.273Z,958.86
2016-03-13T02:17:44.213Z,958.88
2016-03-13T02:18:44.154Z,958.85
2016-03-13T02:19:44.093Z,958.87
2016-03-13T02:20:44.034Z,958.88
2016-03-13T02:21:43.974Z,958.88
2016-03-13T02:22:43.914Z,958.89
2016-03-13T02:23:43.854Z,958.91
2016-03-13T02:24:43.809Z,958.89
2016-03-13T02:25:43.750Z,958.87
2016-03-13T02:26:43.690Z,958.86
2016-03-13T02:27:43.631Z,958.85
2016-03-13T02:28:43.571Z,958.88
2016-03-13T02:29:43.495Z,958.85
2016-03-13T02:30:43.451Z,958.87
2016-03-13T02:31:43.407Z,958.83
2016-03-13T02:32:43.331Z,958.89
2016-03-13T02:33:43.271Z,958.88
2016-03-13T02:34:43.228Z,958.86
2016-03-13T02:35:43.153Z,958.89
2016-03-13T02:36:43.123Z,958.93
2016-03-13T02:37:43.033Z,958.92
2016-03-13T02:38:42.973Z,958.92
2016-03-13T02:39:42.929Z,958.92
2016-03-13T02:40:42.869Z,958.89
2016-03-13T02:41:42.809Z,958.93
2016-03-13T02:42:42.733Z,958.86
2016-03-13T02:43:42.690Z,958.86
2016-03-13T02:44:42.630Z,958.88
2016-03-13T02:45:42.570Z,958.87
2016-03-13T02:46:42.510Z,958.92
2016-03-13T02:47:42.450Z,958.89
2016-03-13T02:48:42.390Z,958.92
2016-03-13T02:49:42.331Z,958.95
2016-03-13T02:50:42.270Z,958.94
2016-03-13T02:51:42.211Z,958.96
2016-03-13T02:52:42.151Z,958.92
2016-03-13T02:53:42.091Z,958.98
2016-03-13T02:54:42.031Z,958.94
2016-03-13T02:55:41.972Z,958.96
2016-03-13T02:56:41.928Z,958.99
2016-03-13T02:57:41.853Z,958.95
2016-03-13T02:58:41.808Z,958.98
2016-03-13T02:59:41.733Z,958.99
2016-03-13T03:00:41.689Z,959.01
2016-03-13T03:01:41.629Z,959.01
2016-03-13T03:02:41.553Z,958.98
2016-03-13T03:03:41.509Z,958.99
2016-03-13T03:04:41.465Z,958.96
2016-03-13T03:05:41.389Z,959
2016-03-13T03:06:41.330Z,959.03
2016-03-13T03:07:41.269Z,959
2016-03-13T03:08:41.210Z,958.99
2016-03-13T03:09:41.166Z,959
2016-03-13T03:10:41.090Z,959.01
2016-03-13T03:11:41.030Z,958.97
2016-03-13T03:12:41.002Z,959.01
2016-03-13T03:13:40.910Z,959.01
2016-03-13T03:14:40.866Z,959.03
2016-03-13T03:15:40.807Z,959.02
2016-03-13T03:16:40.731Z,959.04
2016-03-13T03:17:40.671Z,959.03
2016-03-13T03:18:40.642Z,959.01
2016-03-13T03:19:40.567Z,959.03
2016-03-13T03:20:40.507Z,959.04
2016-03-13T03:21:40.463Z,959.02
2016-03-13T03:22:40.403Z,959
2016-03-13T03:23:40.312Z,958.97
2016-03-13T03:24:40.284Z,958.96
2016-03-13T03:25:40.208Z,958.97
2016-03-13T03:26:40.148Z,958.95
2016-03-13T03:27:40.089Z,958.98
2016-03-13T03:28:40.028Z,958.96
2016-03-13T03:29:39.970Z,958.97
2016-03-13T03:30:39.925Z,958.92
2016-03-13T03:31:39.850Z,958.96
2016-03-13T03:32:39.790Z,958.97
2016-03-13T03:33:39.730Z,958.98
2016-03-13T03:34:39.670Z,959.01
2016-03-13T03:35:39.611Z,959.02
2016-03-13T03:36:39.550Z,959.04
2016-03-13T03:37:39.491Z,959.04
2016-03-13T03:38:39.431Z,959.05
2016-03-13T03:39:39.372Z,959.05
2016-03-13T03:40:39.327Z,959.05
2016-03-13T03:41:39.252Z,959.03
2016-03-13T03:42:39.191Z,959.06
2016-03-13T03:43:39.147Z,959.09
2016-03-13T03:44:39.072Z,959.11
2016-03-13T03:45:39.027Z,959.12
2016-03-13T03:46:38.952Z,959.1
2016-03-13T03:47:38.908Z,959.09
2016-03-13T03:48:38.848Z,959.09
2016-03-13T03:49:38.788Z,959.09
2016-03-13T03:50:38.729Z,959.06
2016-03-13T03:51:38.668Z,959.11
2016-03-13T03:52:38.609Z,959.13
2016-03-13T03:53:38.548Z,959.15
2016-03-13T03:54:38.489Z,959.11
2016-03-13T03:55:38.445Z,959.13
2016-03-13T03:56:38.370Z,959.12
2016-03-13T03:57:38.341Z,959.1
2016-03-13T03:58:38.281Z,959.11
2016-03-13T03:59:38.206Z,959.15
2016-03-13T04:00:38.130Z,959.12
2016-03-13T04:01:38.086Z,959.13
2016-03-13T04:02:38.027Z,959.12
2016-03-13T04:03:37.967Z,959.14
2016-03-13T04:04:37.908Z,959.15
2016-03-13T04:05:37.847Z,959.15
2016-03-13T04:06:37.788Z,959.11
2016-03-13T04:07:37.728Z,959.1
2016-03-13T04:08:37.668Z,959.11
2016-03-13T04:09:37.624Z,959.11
2016-03-13T04:10:37.549Z,959.14
2016-03-13T04:11:37.504Z,959.09
2016-03-13T04:12:37.444Z,959.13
2016-03-13T04:13:37.385Z,959.12
2016-03-13T04:14:37.309Z,959.13
2016-03-13T04:15:37.265Z,959.16
2016-03-13T04:16:37.205Z,959.16
2016-03-13T04:17:37.160Z,959.13
2016-03-13T04:18:37.085Z,959.11
2016-03-13T04:19:37.026Z,959.17
2016-03-13T04:20:36.965Z,959.15
2016-03-13T04:21:36.906Z,959.2
2016-03-13T04:22:36.862Z,959.14
2016-03-13T04:23:36.801Z,959.17
2016-03-13T04:24:36.726Z,959.18
2016-03-13T04:25:36.667Z,959.23
2016-03-13T04:26:36.606Z,959.23
2016-03-13T04:27:36.595Z,959.23
2016-03-13T04:28:36.487Z,959.19
2016-03-13T04:29:36.428Z,959.21
2016-03-13T04:30:36.368Z,959.22
2016-03-13T04:31:36.308Z,959.2
2016-03-13T04:32:36.264Z,959.21
2016-03-13T04:33:36.204Z,959.18
2016-03-13T04:34:36.129Z,959.25
2016-03-13T04:35:36.084Z,959.21
2016-03-13T04:36:36.009Z,959.19
2016-03-13T04:37:35.965Z,959.16
2016-03-13T04:38:35.905Z,959.18
2016-03-13T04:39:35.845Z,959.13
2016-03-13T04:40:35.785Z,959.13
2016-03-13T04:41:35.725Z,959.12
2016-03-13T04:42:35.666Z,959.14
2016-03-13T04:43:35.605Z,959.13
2016-03-13T04:44:35.530Z,959.1
2016-03-13T04:45:35.486Z,959.13
2016-03-13T04:46:35.426Z,959.14
2016-03-13T04:47:35.382Z,959.16
2016-03-13T04:48:35.291Z,959.17
2016-03-13T04:49:35.246Z,959.16
2016-03-13T04:50:35.187Z,959.15
2016-03-13T04:51:35.126Z,959.15
2016-03-13T04:52:35.067Z,959.15
2016-03-13T04:53:35.007Z,959.17
2016-03-13T04:54:34.948Z,959.18
2016-03-13T04:55:34.887Z,959.15
2016-03-13T04:56:34.828Z,959.18
2016-03-13T04:57:34.768Z,959.12
2016-03-13T04:58:34.708Z,959.19
2016-03-13T04:59:34.648Z,959.2
2016-03-13T05:00:34.589Z,959.21
2016-03-13T05:01:34.529Z,959.16
2016-03-13T05:02:34.470Z,959.2
2016-03-13T05:03:34.409Z,959.25
2016-03-13T05:04:34.350Z,959.21
2016-03-13T05:05:34.290Z,959.22
2016-03-13T05:06:34.230Z,959.19
2016-03-13T05:07:34.170Z,959.21
2016-03-13T05:08:34.111Z,959.18
2016-03-13T05:09:34.050Z,959.19
2016-03-13T05:10:33.991Z,959.19
2016-03-13T05:11:33.931Z,959.2
2016-03-13T05:12:33.871Z,959.22
2016-03-13T05:13:33.811Z,959.24
2016-03-13T05:14:33.752Z,959.26
2016-03-13T05:15:33.691Z,959.25
2016-03-13T05:16:33.632Z,959.27
2016-03-13T05:17:33.572Z,959.29
2016-03-13T05:18:33.512Z,959.26
2016-03-13T05:19:33.468Z,959.25
2016-03-13T05:20:33.393Z,959.29
2016-03-13T05:21:33.348Z,959.28
2016-03-13T05:22:33.288Z,959.3
2016-03-13T05:23:33.229Z,959.31
2016-03-13T05:24:33.168Z,959.31
2016-03-13T05:25:33.109Z,959.34
2016-03-13T05:26:33.033Z,959.33
2016-03-13T05:27:32.973Z,959.34
2016-03-13T05:28:32.914Z,959.32
2016-03-13T05:29:32.853Z,959.32
2016-03-13T05:30:32.794Z,959.32
2016-03-13T05:31:32.750Z,959.31
2016-03-13T05:32:32.675Z,959.32
2016-03-13T05:33:32.614Z,959.32
2016-03-13T05:34:32.555Z,959.36
2016-03-13T05:35:32.495Z,959.34
2016-03-13T05:36:32.436Z,959.37
2016-03-13T05:37:32.376Z,959.38
2016-03-13T05:38:32.316Z,959.34
2016-03-13T05:39:32.256Z,959.34
2016-03-13T05:40:32.212Z,959.36
2016-03-13T05:41:32.152Z,959.36
2016-03-13T05:42:32.092Z,959.36
2016-03-13T05:43:32.017Z,959.41
2016-03-13T05:44:31.972Z,959.41
2016-03-13T05:45:31.913Z,959.41
2016-03-13T05:46:31.839Z,959.44
2016-03-13T05:47:31.825Z,959.43
2016-03-13T05:48:31.743Z,959.42
2016-03-13T05:49:31.677Z,959.43
2016-03-13T05:50:31.633Z,959.47
2016-03-13T05:51:31.558Z,959.49
2016-03-13T05:52:31.482Z,959.46
2016-03-13T05:53:31.454Z,959.46
2016-03-13T05:54:31.378Z,959.53
2016-03-13T05:55:31.303Z,959.51
2016-03-13T05:56:31.258Z,959.54
2016-03-13T05:57:31.199Z,959.52
2016-03-13T05:58:31.144Z,959.52
2016-03-13T05:59:31.084Z,959.48
2016-03-13T06:00:31.024Z,959.5
2016-03-13T06:01:30.949Z,959.51
2016-03-13T06:02:30.904Z,959.53
2016-03-13T06:03:30.845Z,959.54
2016-03-13T06:04:30.770Z,959.57
2016-03-13T06:05:30.725Z,959.56
2016-03-13T06:06:30.662Z,959.57
2016-03-13T06:07:30.603Z,959.58
2016-03-13T06:08:30.543Z,959.6
2016-03-13T06:09:30.484Z,959.54
2016-03-13T06:10:30.423Z,959.53
2016-03-13T06:11:30.364Z,959.53
2016-03-13T06:12:30.304Z,959.56
2016-03-13T06:13:30.245Z,959.59
2016-03-13T06:14:30.184Z,959.52
2016-03-13T06:15:30.140Z,959.55
2016-03-13T06:16:30.065Z,959.6
2016-03-13T06:17:30.005Z,959.55
2016-03-13T06:18:29.945Z,959.56
2016-03-13T06:19:29.901Z,959.54
2016-03-13T06:20:29.841Z,959.6
2016-03-13T06:21:29.781Z,959.57
2016-03-13T06:22:29.721Z,959.53
2016-03-13T06:23:29.661Z,959.6
2016-03-13T06:24:29.602Z,959.63
2016-03-13T06:25:29.541Z,959.64
2016-03-13T06:26:29.482Z,959.61
2016-03-13T06:27:29.422Z,959.63
2016-03-13T06:28:29.362Z,959.62
2016-03-13T06:29:29.302Z,959.61
2016-03-13T06:30:29.243Z,959.59
2016-03-13T06:31:29.198Z,959.64
2016-03-13T06:32:29.123Z,959.62
2016-03-13T06:33:29.079Z,959.63
2016-03-13T06:34:29.003Z,959.63
2016-03-13T06:35:28.959Z,959.6
2016-03-13T06:36:28.900Z,959.63
2016-03-13T06:37:28.823Z,959.59
2016-03-13T06:38:28.764Z,959.66
2016-03-13T06:39:28.720Z,959.68
2016-03-13T06:40:28.660Z,959.64
2016-03-13T06:41:28.585Z,959.64
2016-03-13T06:42:28.541Z,959.7
2016-03-13T06:43:28.481Z,959.65
2016-03-13T06:44:28.422Z,959.68
2016-03-13T06:45:28.377Z,959.68
2016-03-13T06:46:28.302Z,959.71
2016-03-13T06:47:28.242Z,959.71
2016-03-13T06:48:28.182Z,959.69
2016-03-13T06:49:28.122Z,959.71
2016-03-13T06:50:28.062Z,959.73
2016-03-13T06:51:28.002Z,959.75
2016-03-13T06:52:27.943Z,959.74
2016-03-13T06:53:27.883Z,959.78
2016-03-13T06:54:27.823Z,959.74
2016-03-13T06:55:27.779Z,959.73
2016-03-13T06:56:27.704Z,959.72
2016-03-13T06:57:27.659Z,959.7
2016-03-13T06:58:27.599Z,959.73
2016-03-13T06:59:27.524Z,959.79
2016-03-13T07:00:27.465Z,959.74
2016-03-13T07:01:27.655Z,959.8
2016-03-13T07:02:27.360Z,959.79
2016-03-13T07:03:27.285Z,959.77
2016-03-13T07:04:27.241Z,959.81
2016-03-13T07:05:27.165Z,959.79
2016-03-13T07:06:27.121Z,959.8
2016-03-13T07:07:27.062Z,959.83
2016-03-13T07:08:27.001Z,959.86
2016-03-13T07:09:26.926Z,959.87
2016-03-13T07:10:26.866Z,959.9
2016-03-13T07:11:26.822Z,959.88
2016-03-13T07:12:26.747Z,959.92
2016-03-13T07:13:26.703Z,959.9
2016-03-13T07:14:26.642Z,959.9
2016-03-13T07:15:26.583Z,959.88
2016-03-13T07:16:26.523Z,960.02
2016-03-13T07:17:26.463Z,959.94
2016-03-13T07:18:26.388Z,959.93
2016-03-13T07:19:26.343Z,959.97
2016-03-13T07:20:26.268Z,959.96
2016-03-13T07:21:26.239Z,959.96
2016-03-13T07:22:26.163Z,960.01
2016-03-13T07:23:26.104Z,959.95
2016-03-13T07:24:26.029Z,959.97
2016-03-13T07:25:25.984Z,959.93
2016-03-13T07:26:25.925Z,959.98
2016-03-13T07:27:25.865Z,959.96
2016-03-13T07:28:25.805Z,959.95
2016-03-13T07:29:25.746Z,959.96
2016-03-13T07:30:25.685Z,959.95
2016-03-13T07:31:25.626Z,960.04
2016-03-13T07:32:25.566Z,960.02
2016-03-13T07:33:25.507Z,960.02
2016-03-13T07:34:25.462Z,960.02
2016-03-13T07:35:25.402Z,960.02
2016-03-13T07:36:25.326Z,960.04
2016-03-13T07:37:25.267Z,960.06
2016-03-13T07:38:25.207Z,960.03
2016-03-13T07:39:25.162Z,960.06
2016-03-13T07:40:25.103Z,960.06
2016-03-13T07:41:25.043Z,960.11
2016-03-13T07:42:24.967Z,960.12
2016-03-13T07:43:24.908Z,960.15
2016-03-13T07:44:24.863Z,960.15
2016-03-13T07:45:24.788Z,960.15
2016-03-13T07:46:24.744Z,960.17
2016-03-13T07:47:24.683Z,960.15
2016-03-13T07:48:24.624Z,960.23
2016-03-13T07:49:24.564Z,960.18
2016-03-13T07:50:24.489Z,960.19
2016-03-13T07:51:24.445Z,960.21
2016-03-13T07:52:24.370Z,960.21
2016-03-13T07:53:24.325Z,960.28
2016-03-13T07:54:24.266Z,960.24
2016-03-13T07:55:24.222Z,960.24
2016-03-13T07:56:24.146Z,960.23
2016-03-13T07:57:24.086Z,960.29
2016-03-13T07:58:24.026Z,960.32
2016-03-13T07:59:23.982Z,960.3
2016-03-13T08:00:23.907Z,960.29
2016-03-13T08:01:23.862Z,960.33
2016-03-13T08:02:23.787Z,960.38
2016-03-13T08:03:23.727Z,960.29
2016-03-13T08:04:23.668Z,960.35
2016-03-13T08:05:23.624Z,960.35
2016-03-13T08:06:23.563Z,960.27
2016-03-13T08:07:23.504Z,960.31
2016-03-13T08:08:23.443Z,960.35
2016-03-13T08:09:23.384Z,960.32
2016-03-13T08:10:23.324Z,960.26
2016-03-13T08:11:23.264Z,960.29
2016-03-13T08:12:23.204Z,960.3
2016-03-13T08:13:23.176Z,960.27
2016-03-13T08:14:23.085Z,960.3
2016-03-13T08:15:23.025Z,960.33
2016-03-13T08:16:22.981Z,960.3
2016-03-13T08:17:22.906Z,960.26
2016-03-13T08:18:22.861Z,960.25
2016-03-13T08:19:22.786Z,960.21
2016-03-13T08:20:22.742Z,960.26
2016-03-13T08:21:22.682Z,960.27
2016-03-13T08:22:22.622Z,960.26
2016-03-13T08:23:22.577Z,960.3
2016-03-13T08:24:22.518Z,960.32
2016-03-13T08:25:22.443Z,960.29
2016-03-13T08:26:22.382Z,960.22
2016-03-13T08:27:22.324Z,960.29
2016-03-13T08:28:22.263Z,960.29
2016-03-13T08:29:22.204Z,960.35
2016-03-13T08:30:22.144Z,960.35
2016-03-13T08:31:22.084Z,960.38
2016-03-13T08:32:22.024Z,960.36
2016-03-13T08:33:21.979Z,960.35
2016-03-13T08:34:21.935Z,960.31
2016-03-13T08:35:21.859Z,960.35
2016-03-13T08:36:21.787Z,960.35
2016-03-13T08:37:21.712Z,960.35
2016-03-13T08:38:21.640Z,960.41
2016-03-13T08:39:21.565Z,960.39
2016-03-13T08:40:21.507Z,960.4
2016-03-13T08:41:21.427Z,960.41
2016-03-13T08:42:21.378Z,960.36
2016-03-13T08:43:21.297Z,960.33
2016-03-13T08:44:21.233Z,960.33
2016-03-13T08:45:21.173Z,960.39
2016-03-13T08:46:21.112Z,960.37
2016-03-13T08:47:21.066Z,960.37
2016-03-13T08:48:21.003Z,960.37
2016-03-13T08:49:20.942Z,960.31
2016-03-13T08:50:20.896Z,960.37
2016-03-13T08:51:20.804Z,960.37
2016-03-13T08:52:20.774Z,960.4
2016-03-13T08:53:20.699Z,960.4
2016-03-13T08:54:20.637Z,960.39
2016-03-13T08:55:20.592Z,960.38
2016-03-13T08:56:20.516Z,960.41
2016-03-13T08:57:20.456Z,960.4
2016-03-13T08:58:20.412Z,960.4
2016-03-13T08:59:20.352Z,960.38
2016-03-13T09:00:20.292Z,960.34
2016-03-13T09:01:20.231Z,960.38
2016-03-13T09:02:20.172Z,960.37
2016-03-13T09:03:20.112Z,960.37
2016-03-13T09:04:20.053Z,960.38
2016-03-13T09:05:20.196Z,960.4
2016-03-13T09:06:19.948Z,960.39
2016-03-13T09:07:19.880Z,960.39
2016-03-13T09:08:19.820Z,960.41
2016-03-13T09:09:19.776Z,960.36
2016-03-13T09:10:19.701Z,960.36
2016-03-13T09:11:19.640Z,960.42
2016-03-13T09:12:19.581Z,960.39
2016-03-13T09:13:19.568Z,960.41
2016-03-13T09:14:19.492Z,960.36
2016-03-13T09:15:19.432Z,960.31
2016-03-13T09:16:19.389Z,960.35
2016-03-13T09:17:19.298Z,960.37
2016-03-13T09:18:19.237Z,960.41
2016-03-13T09:19:19.178Z,960.38
2016-03-13T09:20:19.133Z,960.4
2016-03-13T09:21:19.074Z,960.4
2016-03-13T09:22:19.045Z,960.44
2016-03-13T09:23:18.954Z,960.43
2016-03-13T09:24:18.925Z,960.48
2016-03-13T09:25:18.850Z,960.5
2016-03-13T09:26:18.790Z,960.48
2016-03-13T09:27:18.730Z,960.46
2016-03-13T09:28:18.671Z,960.46
2016-03-13T09:29:18.595Z,960.47
2016-03-13T09:30:18.552Z,960.51
2016-03-13T09:31:18.507Z,960.48
2016-03-13T09:32:18.447Z,960.51
2016-03-13T09:33:18.372Z,960.51
2016-03-13T09:34:18.312Z,960.48
2016-03-13T09:35:18.252Z,960.46
2016-03-13T09:36:18.208Z,960.51
2016-03-13T09:37:18.132Z,960.49
2016-03-13T09:38:18.088Z,960.47
2016-03-13T09:39:18.029Z,960.45
2016-03-13T09:40:17.985Z,960.43
2016-03-13T09:41:17.940Z,960.49
2016-03-13T09:42:17.849Z,960.54
2016-03-13T09:43:17.790Z,960.52
2016-03-13T09:44:17.729Z,960.56
2016-03-13T09:45:17.685Z,960.57
2016-03-13T09:46:17.610Z,960.59
2016-03-13T09:47:17.582Z,960.58
2016-03-13T09:48:17.506Z,960.6
2016-03-13T09:49:17.462Z,960.6
2016-03-13T09:50:17.386Z,960.61
2016-03-13T09:51:17.342Z,960.56
2016-03-13T09:52:17.281Z,960.61
2016-03-13T09:53:17.239Z,960.57
2016-03-13T09:54:17.162Z,960.58
2016-03-13T09:55:17.103Z,960.56
2016-03-13T09:56:17.043Z,960.56
2016-03-13T09:57:16.999Z,960.53
2016-03-13T09:58:16.923Z,960.57
2016-03-13T09:59:16.861Z,960.57
2016-03-13T10:00:16.817Z,960.62
2016-03-13T10:01:16.757Z,960.63
2016-03-13T10:02:16.697Z,960.63
2016-03-13T10:03:16.637Z,960.62
2016-03-13T10:04:16.577Z,960.64
2016-03-13T10:05:16.518Z,960.67
2016-03-13T10:06:16.458Z,960.69
2016-03-13T10:07:16.414Z,960.65
2016-03-13T10:08:16.354Z,960.66
2016-03-13T10:09:16.279Z,960.64
2016-03-13T10:10:16.249Z,960.64
2016-03-13T10:11:16.159Z,960.68
2016-03-13T10:12:16.115Z,960.69
2016-03-13T10:13:16.055Z,960.7
2016-03-13T10:14:15.995Z,960.72
2016-03-13T10:15:15.935Z,960.7
2016-03-13T10:16:15.891Z,960.68
2016-03-13T10:17:15.815Z,960.71
2016-03-13T10:18:15.771Z,960.71
2016-03-13T10:19:15.695Z,960.67
2016-03-13T10:20:15.651Z,960.67
2016-03-13T10:21:15.576Z,960.66
2016-03-13T10:22:15.531Z,960.67
2016-03-13T10:23:15.472Z,960.63
2016-03-13T10:24:15.412Z,960.62
2016-03-13T10:25:15.337Z,960.63
2016-03-13T10:26:15.293Z,960.62
2016-03-13T10:27:15.233Z,960.57
2016-03-13T10:28:15.173Z,960.57
2016-03-13T10:29:15.113Z,960.59
2016-03-13T10:30:15.069Z,960.6
2016-03-13T10:31:15.009Z,960.59
2016-03-13T10:32:14.949Z,960.57
2016-03-13T10:33:14.889Z,960.54
2016-03-13T10:34:14.861Z,960.55
2016-03-13T10:35:14.817Z,960.55
2016-03-13T10:36:14.710Z,960.53
2016-03-13T10:37:14.666Z,960.56
2016-03-13T10:38:14.606Z,960.55
2016-03-13T10:39:14.546Z,960.5
2016-03-13T10:40:14.502Z,960.55
2016-03-13T10:41:14.474Z,960.56
2016-03-13T10:42:14.368Z,960.58
2016-03-13T10:43:14.307Z,960.58
2016-03-13T10:44:14.248Z,960.59
2016-03-13T10:45:14.188Z,960.6
2016-03-13T10:46:14.143Z,960.57
2016-03-13T10:47:14.099Z,960.54
2016-03-13T10:48:14.040Z,960.57
2016-03-13T10:49:13.964Z,960.59
2016-03-13T10:50:13.935Z,960.65
2016-03-13T10:51:13.859Z,960.65
2016-03-13T10:52:13.815Z,960.65
2016-03-13T10:53:13.787Z,960.64
2016-03-13T10:54:13.696Z,960.64
2016-03-13T10:55:13.621Z,960.66
2016-03-13T10:56:13.576Z,960.65
2016-03-13T10:57:13.517Z,960.6
2016-03-13T10:58:13.457Z,960.61
2016-03-13T10:59:13.398Z,960.62
2016-03-13T11:00:13.337Z,960.6
2016-03-13T11:01:13.261Z,960.65
2016-03-13T11:02:13.217Z,960.62
2016-03-13T11:03:13.205Z,960.63
2016-03-13T11:04:13.145Z,960.61
2016-03-13T11:05:13.054Z,960.66
2016-03-13T11:06:12.978Z,960.69
2016-03-13T11:07:12.919Z,960.66
2016-03-13T11:08:12.858Z,960.69
2016-03-13T11:09:12.799Z,960.61
2016-03-13T11:10:12.755Z,960.62
2016-03-13T11:11:12.679Z,960.63
2016-03-13T11:12:12.635Z,960.66
2016-03-13T11:13:12.576Z,960.67
2016-03-13T11:14:12.531Z,960.67
2016-03-13T11:15:12.456Z,960.65
2016-03-13T11:16:12.395Z,960.66
2016-03-13T11:17:12.367Z,960.71
2016-03-13T11:18:12.292Z,960.68
2016-03-13T11:19:12.232Z,960.74
2016-03-13T11:20:12.173Z,960.68
2016-03-13T11:21:12.113Z,960.69
2016-03-13T11:22:12.068Z,960.68
2016-03-13T11:23:12.024Z,960.74
2016-03-13T11:24:11.948Z,960.69
2016-03-13T11:25:11.889Z,960.73
2016-03-13T11:26:11.829Z,960.67
2016-03-13T11:27:11.769Z,960.67
2016-03-13T11:28:11.694Z,960.7
2016-03-13T11:29:11.650Z,960.65
2016-03-13T11:30:11.589Z,960.61
2016-03-13T11:31:11.530Z,960.61
2016-03-13T11:32:11.486Z,960.55
2016-03-13T11:33:11.411Z,960.52
2016-03-13T11:34:11.351Z,960.56
2016-03-13T11:35:11.306Z,960.63
2016-03-13T11:36:11.247Z,960.53
2016-03-13T11:37:11.172Z,960.53
2016-03-13T11:38:11.128Z,960.53
2016-03-13T11:39:11.067Z,960.51
2016-03-13T11:40:11.008Z,960.51
2016-03-13T11:41:10.948Z,960.48
2016-03-13T11:42:10.888Z,960.43
2016-03-13T11:43:10.828Z,960.42
2016-03-13T11:44:10.785Z,960.48
2016-03-13T11:45:10.755Z,960.48
2016-03-13T11:46:10.649Z,960.51
2016-03-13T11:47:10.604Z,960.48
2016-03-13T11:48:10.529Z,960.47
2016-03-13T11:49:10.485Z,960.51
2016-03-13T11:50:10.425Z,960.49
2016-03-13T11:51:10.381Z,960.47
2016-03-13T11:52:10.306Z,960.4
2016-03-13T11:53:10.230Z,960.48
2016-03-13T11:54:10.232Z,960.42
2016-03-13T11:55:10.142Z,960.45
2016-03-13T11:56:10.082Z,960.4
2016-03-13T11:57:10.022Z,960.47
2016-03-13T11:58:09.962Z,960.46
2016-03-13T11:59:09.903Z,960.37
2016-03-13T12:00:09.842Z,960.38
2016-03-13T12:01:09.784Z,960.35
2016-03-13T12:02:09.724Z,960.38
2016-03-13T12:03:09.664Z,960.4
2016-03-13T12:04:09.620Z,960.38
2016-03-13T12:05:09.560Z,960.38
2016-03-13T12:06:09.500Z,960.35
2016-03-13T12:07:09.425Z,960.34
2016-03-13T12:08:09.364Z,960.3
2016-03-13T12:09:09.320Z,960.35
2016-03-13T12:10:09.244Z,960.23
2016-03-13T12:11:09.185Z,960.31
2016-03-13T12:12:09.141Z,960.32
2016-03-13T12:13:09.066Z,960.32
2016-03-13T12:14:09.053Z,960.28
2016-03-13T12:15:08.961Z,960.25
2016-03-13T12:16:08.886Z,960.28
2016-03-13T12:17:08.857Z,960.3
2016-03-13T12:18:08.797Z,960.32
2016-03-13T12:19:08.754Z,960.24
2016-03-13T12:20:08.710Z,960.28
2016-03-13T12:21:08.634Z,960.26
2016-03-13T12:22:08.543Z,960.28
2016-03-13T12:23:08.515Z,960.18
2016-03-13T12:24:08.471Z,960.22
2016-03-13T12:25:08.379Z,960.19
2016-03-13T12:26:08.319Z,960.18
2016-03-13T12:27:08.275Z,960.16
2016-03-13T12:28:08.215Z,960.15
2016-03-13T12:29:08.171Z,960.1
2016-03-13T12:30:08.095Z,960.1
2016-03-13T12:31:08.037Z,960.15